Kumkoy, Turkey

6:56 PM +03 on January 20, 2017 (GMT +0300)
IU0130ST5 | | Change Station

Elev 390 ft 41.23 °N, 29.05 °E | Updated 5 minutes ago

Rain
Rain
36.0 °F
Feels Like 28 °F
N
12.0
Wind Variable Wind from NE
Gusts 15.0 mph

Today
High -- | Low -- °F
--% Chance of Precip.
Yesterday
High -- | Low -- °F
Precip. -- in
Pressure 30.48 in
Visibility 6.2 miles
Clouds Scattered Clouds 1100 ft
Mostly Cloudy 2800 ft
Windchill 28 °F
Dew Point 34 °F
Humidity 93%
Rainfall 0.12 in
Snow Depth Not available.
8:24 AM 6:05 PM
Last Quarter, 43% visible
METAR LTBA 201520Z 04011KT 010V080 9999 -SHRA SCT011 BKN028 04/01 Q1032 NOSIG RMK RWY17L 02010KT 350V050 RWY05 02012KT RWY23 04011KT
Pressure 30.48 in
Visibility 6.2 miles
Clouds Scattered Clouds 1100 ft
Mostly Cloudy 2800 ft
Windchill 28 °F
Dew Point 34 °F
Humidity 93%
Rainfall 0.12 in
Snow Depth Not available.
8:24 AM 6:05 PM
Last Quarter, 43% visible
METAR LTBA 201520Z 04011KT 010V080 9999 -SHRA SCT011 BKN028 04/01 Q1032 NOSIG RMK RWY17L 02010KT 350V050 RWY05 02012KT RWY23 04011KT

Get Your Daily Forecast Email!

Thanks for signing up!

Be on the lookout for a verification email in your inbox.

You'll start receiving the daily forecast at 8 AM.

×

10-Day Weather Forecast

×

Almanac

Astronomy

Jan. 20, 2017 Rise Set
Actual Time
Civil Twilight
Nautical Twilight
Astronomical Twilight
Moon
Length of Visible Light
Length of Day
Tomorrow will be .
, % of the Moon is Illuminated

Today's Extremes

Country Highs Country Lows

Community

WunderPhotos

Upload Photos

1,962,540 photos uploaded!

WunderBlog® & News

Nearby

Air Quality

  Air Quality AQ Index Pollutant
Not available.

Snow Depth

Station Depth Elevation

Earthquake Activity

City Distance Mag. Time & Date
Minimum magnitude displayed is 2.5.

Coastal Water Temperatures

Place Temperature

Stations

Nearby Weather Stations

Station Location Temp. Windchill Dew Point Humidity Wind Precip. Elev Updated Type